Trujillo, Spain
Current Conditions -  °F | °C
As of 4:00 PM on Friday 19 Dec 2014 (Local Time) from LEBZ Reporting Station
Overcast Overcast  
Wind Chill: 48°   Ceiling: 900
Heat Index: 48°   Visibility: 4mi
Dew Point: 45°   Wind: 0mph
Humidity: 87%   Direction: NA
Pressure: 30.45"   Gusts: NA
Location:  39.46°N, 5.88°W
Report Text: LEBZ 191500Z 00000KT 6000 OVC009 09/07 Q1031
Loading
Personal Weather Stations






























Interactive Weather Map New forecast layout! Learn more

10-Day Weather Forecast

Advertisements
Track Severe Weather on mobile